Hauptseite
METAR-TAF:

METAR-TAF

Flughäfen :

Lawrence Municipal Airport

Lawrence, Kansas, Vereinigte Staaten

Breite: 39-00-30N, Länge: 095-12-42W, Höhe: 253 m

Beobachtung

Neuester Wetterbericht von vor 37 Minuten, um 04:52 UTC
Wind 18 kt aus West, Böen bis zu 28 kt
Temperatur 9°C
Luftfeuchtigkeit 66%
Luftdruck 1007 hPa
Sichtweite: 16.1 km
Durchbrochene Bewölkung in der Höhe von 3200 ft

METAR: KLWC 290452Z AUTO 28018G28KT 10SM BKN032 09/03 A2975 RMK AO2 PK WND 28036/0410 SLP072 T00890028

Zeit: 00:29 (05:29 UTC)


TAF: fehlend

Wetterbeobachtungen und Prognosen von mehr als 4000 Flughäfen (METAR und TAF Bericht).

Die verfügbaren Stationen werden durch gelbe und rote Markierungen auf der Karte dargestellt.

Führen Sie die Maus auf sie, um den Namen der Station zu sehen.

Darauf klicken, um die Beobachtung von Wetterbeobachtungen und Prognosen zu sehen.

Um die Karte zu ändern : klicken Sie auf den grünen Tasten mit einem schwarzen Kreuz Zum Vergrößern, auf den grünen Button mit einem Gedankenstrich zu verkleinern, oder auf die grünen Pfeile für benachbarte Karten.


METAR-TAF: